sensor_id;sensor_type;location;lat;lon;timestamp;temperature;humidity
5978;DHT22;3015;51.390;12.256;2022-07-29T00:01:48;17.60;99.90
5978;DHT22;3015;51.390;12.256;2022-07-29T00:04:14;17.60;99.90
5978;DHT22;3015;51.390;12.256;2022-07-29T00:06:40;17.60;99.90
5978;DHT22;3015;51.390;12.256;2022-07-29T00:09:06;17.60;99.90
5978;DHT22;3015;51.390;12.256;2022-07-29T00:11:32;17.50;99.90
5978;DHT22;3015;51.390;12.256;2022-07-29T00:13:57;17.50;99.90
5978;DHT22;3015;51.390;12.256;2022-07-29T00:16:23;17.50;99.90
5978;DHT22;3015;51.390;12.256;2022-07-29T00:18:49;17.60;99.90
5978;DHT22;3015;51.390;12.256;2022-07-29T00:21:14;17.50;99.90
5978;DHT22;3015;51.390;12.256;2022-07-29T00:23:40;17.50;99.90
5978;DHT22;3015;51.390;12.256;2022-07-29T00:26:06;17.50;99.90
5978;DHT22;3015;51.390;12.256;2022-07-29T00:28:31;17.40;99.90
5978;DHT22;3015;51.390;12.256;2022-07-29T00:30:57;17.50;99.90
5978;DHT22;3015;51.390;12.256;2022-07-29T00:33:23;17.40;99.90
5978;DHT22;3015;51.390;12.256;2022-07-29T00:35:49;17.40;99.90
5978;DHT22;3015;51.390;12.256;2022-07-29T00:38:16;17.30;99.90
5978;DHT22;3015;51.390;12.256;2022-07-29T00:40:43;17.30;99.90
5978;DHT22;3015;51.390;12.256;2022-07-29T00:43:09;17.30;99.90
5978;DHT22;3015;51.390;12.256;2022-07-29T00:45:35;17.30;99.90
5978;DHT22;3015;51.390;12.256;2022-07-29T00:48:01;17.30;99.90
5978;DHT22;3015;51.390;12.256;2022-07-29T00:50:27;17.30;99.90
5978;DHT22;3015;51.390;12.256;2022-07-29T00:52:52;17.20;99.90
5978;DHT22;3015;51.390;12.256;2022-07-29T00:55:18;17.20;99.90
5978;DHT22;3015;51.390;12.256;2022-07-29T00:57:45;17.20;99.90
5978;DHT22;3015;51.390;12.256;2022-07-29T01:00:14;17.10;99.90
5978;DHT22;3015;51.390;12.256;2022-07-29T01:02:40;17.30;99.90
5978;DHT22;3015;51.390;12.256;2022-07-29T01:05:06;17.20;99.90
5978;DHT22;3015;51.390;12.256;2022-07-29T01:07:34;17.30;99.90
5978;DHT22;3015;51.390;12.256;2022-07-29T01:10:02;17.30;99.90
5978;DHT22;3015;51.390;12.256;2022-07-29T01:12:30;17.30;99.90
5978;DHT22;3015;51.390;12.256;2022-07-29T01:15:00;17.20;99.90
5978;DHT22;3015;51.390;12.256;2022-07-29T01:17:28;17.20;99.90
5978;DHT22;3015;51.390;12.256;2022-07-29T01:22:42;17.10;99.90
5978;DHT22;3015;51.390;12.256;2022-07-29T01:30:30;17.00;99.90
5978;DHT22;3015;51.390;12.256;2022-07-29T01:32:59;17.00;99.90
5978;DHT22;3015;51.390;12.256;2022-07-29T01:35:40;16.90;99.90
5978;DHT22;3015;51.390;12.256;2022-07-29T01:38:21;16.90;99.90
5978;DHT22;3015;51.390;12.256;2022-07-29T01:40:58;17.00;99.90
5978;DHT22;3015;51.390;12.256;2022-07-29T01:43:34;17.00;99.90
5978;DHT22;3015;51.390;12.256;2022-07-29T01:46:05;16.90;99.90
5978;DHT22;3015;51.390;12.256;2022-07-29T01:48:39;16.80;99.90
5978;DHT22;3015;51.390;12.256;2022-07-29T01:51:10;16.90;99.90
5978;DHT22;3015;51.390;12.256;2022-07-29T01:54:12;16.90;99.90
5978;DHT22;3015;51.390;12.256;2022-07-29T01:56:39;16.90;99.90
5978;DHT22;3015;51.390;12.256;2022-07-29T01:59:06;16.90;99.90
5978;DHT22;3015;51.390;12.256;2022-07-29T02:01:33;16.90;99.90
5978;DHT22;3015;51.390;12.256;2022-07-29T02:04:02;16.90;99.90
5978;DHT22;3015;51.390;12.256;2022-07-29T02:06:29;17.00;99.90
5978;DHT22;3015;51.390;12.256;2022-07-29T02:08:57;17.00;99.90
5978;DHT22;3015;51.390;12.256;2022-07-29T02:11:24;16.90;99.90
5978;DHT22;3015;51.390;12.256;2022-07-29T02:13:54;16.90;99.90
5978;DHT22;3015;51.390;12.256;2022-07-29T02:16:22;16.90;99.90
5978;DHT22;3015;51.390;12.256;2022-07-29T02:18:51;16.80;99.90
5978;DHT22;3015;51.390;12.256;2022-07-29T02:21:22;16.80;99.90
5978;DHT22;3015;51.390;12.256;2022-07-29T02:23:48;16.90;99.90
5978;DHT22;3015;51.390;12.256;2022-07-29T02:26:15;16.90;99.90
5978;DHT22;3015;51.390;12.256;2022-07-29T02:28:42;16.80;99.90
5978;DHT22;3015;51.390;12.256;2022-07-29T02:31:08;16.90;99.90
5978;DHT22;3015;51.390;12.256;2022-07-29T02:33:35;16.80;99.90
5978;DHT22;3015;51.390;12.256;2022-07-29T02:36:02;16.80;99.90
5978;DHT22;3015;51.390;12.256;2022-07-29T02:38:28;16.80;99.90
5978;DHT22;3015;51.390;12.256;2022-07-29T02:42:01;16.80;99.90
5978;DHT22;3015;51.390;12.256;2022-07-29T02:44:31;16.80;99.90
5978;DHT22;3015;51.390;12.256;2022-07-29T02:47:18;16.70;99.90
5978;DHT22;3015;51.390;12.256;2022-07-29T02:50:08;16.80;99.90
5978;DHT22;3015;51.390;12.256;2022-07-29T02:52:42;16.80;99.90
5978;DHT22;3015;51.390;12.256;2022-07-29T02:55:25;16.70;99.90
5978;DHT22;3015;51.390;12.256;2022-07-29T02:58:13;16.70;99.90
5978;DHT22;3015;51.390;12.256;2022-07-29T03:00:40;16.70;99.90
5978;DHT22;3015;51.390;12.256;2022-07-29T03:03:13;16.70;99.90
5978;DHT22;3015;51.390;12.256;2022-07-29T03:05:40;16.70;99.90
5978;DHT22;3015;51.390;12.256;2022-07-29T03:08:08;16.70;99.90
5978;DHT22;3015;51.390;12.256;2022-07-29T03:10:34;16.60;99.90
5978;DHT22;3015;51.390;12.256;2022-07-29T03:13:02;16.60;99.90
5978;DHT22;3015;51.390;12.256;2022-07-29T03:15:27;16.60;99.90
5978;DHT22;3015;51.390;12.256;2022-07-29T03:17:53;16.60;99.90
5978;DHT22;3015;51.390;12.256;2022-07-29T03:20:20;16.60;99.90
5978;DHT22;3015;51.390;12.256;2022-07-29T03:22:47;16.50;99.90
5978;DHT22;3015;51.390;12.256;2022-07-29T03:25:14;16.50;99.90
5978;DHT22;3015;51.390;12.256;2022-07-29T03:27:41;16.50;99.90
5978;DHT22;3015;51.390;12.256;2022-07-29T03:30:07;16.30;99.90
5978;DHT22;3015;51.390;12.256;2022-07-29T03:32:33;16.40;99.90
5978;DHT22;3015;51.390;12.256;2022-07-29T03:34:59;16.30;99.90
5978;DHT22;3015;51.390;12.256;2022-07-29T03:37:25;16.20;99.90
5978;DHT22;3015;51.390;12.256;2022-07-29T03:39:52;16.20;99.90
5978;DHT22;3015;51.390;12.256;2022-07-29T03:42:21;16.20;99.90
5978;DHT22;3015;51.390;12.256;2022-07-29T03:44:50;16.10;99.90
5978;DHT22;3015;51.390;12.256;2022-07-29T03:47:20;16.10;99.90
5978;DHT22;3015;51.390;12.256;2022-07-29T03:49:50;16.00;99.90
5978;DHT22;3015;51.390;12.256;2022-07-29T03:52:17;16.00;99.90
5978;DHT22;3015;51.390;12.256;2022-07-29T03:54:44;15.90;99.90
5978;DHT22;3015;51.390;12.256;2022-07-29T03:57:11;15.90;99.90
5978;DHT22;3015;51.390;12.256;2022-07-29T03:59:38;16.00;99.90
5978;DHT22;3015;51.390;12.256;2022-07-29T04:02:04;16.00;99.90
5978;DHT22;3015;51.390;12.256;2022-07-29T04:04:34;15.90;99.90
5978;DHT22;3015;51.390;12.256;2022-07-29T04:07:00;15.90;99.90
5978;DHT22;3015;51.390;12.256;2022-07-29T04:09:26;16.00;99.90
5978;DHT22;3015;51.390;12.256;2022-07-29T04:11:52;15.90;99.90
5978;DHT22;3015;51.390;12.256;2022-07-29T04:14:18;15.90;99.90
5978;DHT22;3015;51.390;12.256;2022-07-29T04:16:44;15.90;99.90
5978;DHT22;3015;51.390;12.256;2022-07-29T04:19:09;16.00;99.90
5978;DHT22;3015;51.390;12.256;2022-07-29T04:21:39;16.00;99.90
5978;DHT22;3015;51.390;12.256;2022-07-29T04:24:05;16.00;99.90
5978;DHT22;3015;51.390;12.256;2022-07-29T04:26:31;16.10;99.90
5978;DHT22;3015;51.390;12.256;2022-07-29T04:28:56;16.10;99.90
5978;DHT22;3015;51.390;12.256;2022-07-29T04:31:22;16.20;99.90
5978;DHT22;3015;51.390;12.256;2022-07-29T04:33:47;16.30;99.90
5978;DHT22;3015;51.390;12.256;2022-07-29T04:36:13;16.30;99.90
5978;DHT22;3015;51.390;12.256;2022-07-29T04:38:39;16.40;99.90
5978;DHT22;3015;51.390;12.256;2022-07-29T04:41:05;16.30;99.90
5978;DHT22;3015;51.390;12.256;2022-07-29T04:43:32;16.50;99.90
5978;DHT22;3015;51.390;12.256;2022-07-29T04:45:58;16.50;99.90
5978;DHT22;3015;51.390;12.256;2022-07-29T04:48:25;16.50;99.90
5978;DHT22;3015;51.390;12.256;2022-07-29T04:50:50;16.60;99.90
5978;DHT22;3015;51.390;12.256;2022-07-29T04:53:16;16.70;99.90
5978;DHT22;3015;51.390;12.256;2022-07-29T04:55:42;16.80;99.90
5978;DHT22;3015;51.390;12.256;2022-07-29T04:58:07;16.90;99.90
5978;DHT22;3015;51.390;12.256;2022-07-29T05:00:33;17.00;99.90
5978;DHT22;3015;51.390;12.256;2022-07-29T05:02:59;17.20;99.90
5978;DHT22;3015;51.390;12.256;2022-07-29T05:05:25;17.20;99.90
5978;DHT22;3015;51.390;12.256;2022-07-29T05:07:50;17.30;99.90
5978;DHT22;3015;51.390;12.256;2022-07-29T05:10:16;17.50;99.90
5978;DHT22;3015;51.390;12.256;2022-07-29T05:12:42;17.60;99.90
5978;DHT22;3015;51.390;12.256;2022-07-29T05:15:08;17.80;99.90
5978;DHT22;3015;51.390;12.256;2022-07-29T05:17:34;17.90;99.90
5978;DHT22;3015;51.390;12.256;2022-07-29T05:19:59;18.10;99.90
5978;DHT22;3015;51.390;12.256;2022-07-29T05:22:25;18.20;99.90
5978;DHT22;3015;51.390;12.256;2022-07-29T05:24:50;18.30;99.90
5978;DHT22;3015;51.390;12.256;2022-07-29T05:27:16;18.50;99.90
5978;DHT22;3015;51.390;12.256;2022-07-29T05:29:42;18.60;99.90
5978;DHT22;3015;51.390;12.256;2022-07-29T05:32:07;18.60;99.90
5978;DHT22;3015;51.390;12.256;2022-07-29T05:34:33;18.70;99.90
5978;DHT22;3015;51.390;12.256;2022-07-29T05:36:59;18.90;99.90
5978;DHT22;3015;51.390;12.256;2022-07-29T05:39:25;19.00;99.90
5978;DHT22;3015;51.390;12.256;2022-07-29T05:41:50;19.10;99.90
5978;DHT22;3015;51.390;12.256;2022-07-29T05:44:16;19.20;99.90
5978;DHT22;3015;51.390;12.256;2022-07-29T05:46:41;19.30;99.90
5978;DHT22;3015;51.390;12.256;2022-07-29T05:49:07;19.30;99.90
5978;DHT22;3015;51.390;12.256;2022-07-29T05:51:33;19.30;99.90
5978;DHT22;3015;51.390;12.256;2022-07-29T05:53:59;19.30;99.90
5978;DHT22;3015;51.390;12.256;2022-07-29T05:56:25;19.40;99.90
5978;DHT22;3015;51.390;12.256;2022-07-29T05:58:51;19.40;99.90
5978;DHT22;3015;51.390;12.256;2022-07-29T06:01:17;19.40;99.90
5978;DHT22;3015;51.390;12.256;2022-07-29T06:03:43;19.30;99.90
5978;DHT22;3015;51.390;12.256;2022-07-29T06:06:09;19.30;99.90
5978;DHT22;3015;51.390;12.256;2022-07-29T06:08:35;19.30;99.90
5978;DHT22;3015;51.390;12.256;2022-07-29T06:11:02;19.30;99.90
5978;DHT22;3015;51.390;12.256;2022-07-29T06:13:27;19.40;99.90
5978;DHT22;3015;51.390;12.256;2022-07-29T06:15:53;19.40;99.90
5978;DHT22;3015;51.390;12.256;2022-07-29T06:18:19;19.30;99.90
5978;DHT22;3015;51.390;12.256;2022-07-29T06:20:46;19.20;99.90
5978;DHT22;3015;51.390;12.256;2022-07-29T06:23:12;19.30;99.90
5978;DHT22;3015;51.390;12.256;2022-07-29T06:25:40;19.40;99.90
5978;DHT22;3015;51.390;12.256;2022-07-29T06:28:05;19.40;99.90
5978;DHT22;3015;51.390;12.256;2022-07-29T06:30:31;19.40;99.90
5978;DHT22;3015;51.390;12.256;2022-07-29T06:32:57;19.60;99.90
5978;DHT22;3015;51.390;12.256;2022-07-29T06:35:23;19.70;99.90
5978;DHT22;3015;51.390;12.256;2022-07-29T06:37:48;19.80;99.90
5978;DHT22;3015;51.390;12.256;2022-07-29T06:40:14;20.00;99.90
5978;DHT22;3015;51.390;12.256;2022-07-29T06:42:58;20.20;99.90
5978;DHT22;3015;51.390;12.256;2022-07-29T06:45:24;20.40;99.90
5978;DHT22;3015;51.390;12.256;2022-07-29T06:47:50;20.60;99.90
5978;DHT22;3015;51.390;12.256;2022-07-29T06:50:15;20.90;99.90
5978;DHT22;3015;51.390;12.256;2022-07-29T06:52:41;21.20;99.90
5978;DHT22;3015;51.390;12.256;2022-07-29T06:55:07;21.30;99.90
5978;DHT22;3015;51.390;12.256;2022-07-29T06:57:33;21.50;99.90
5978;DHT22;3015;51.390;12.256;2022-07-29T06:59:59;21.60;99.90
5978;DHT22;3015;51.390;12.256;2022-07-29T07:02:25;21.80;99.90
5978;DHT22;3015;51.390;12.256;2022-07-29T07:04:51;21.90;99.90
5978;DHT22;3015;51.390;12.256;2022-07-29T07:07:16;22.30;99.90
5978;DHT22;3015;51.390;12.256;2022-07-29T07:09:42;22.70;99.90
5978;DHT22;3015;51.390;12.256;2022-07-29T07:12:08;23.20;99.90
5978;DHT22;3015;51.390;12.256;2022-07-29T07:14:33;23.40;99.90
5978;DHT22;3015;51.390;12.256;2022-07-29T07:16:59;23.50;99.90
5978;DHT22;3015;51.390;12.256;2022-07-29T07:19:26;23.60;99.90
5978;DHT22;3015;51.390;12.256;2022-07-29T07:21:53;23.50;99.90
5978;DHT22;3015;51.390;12.256;2022-07-29T07:24:18;23.60;99.90
5978;DHT22;3015;51.390;12.256;2022-07-29T07:26:44;23.90;99.90
5978;DHT22;3015;51.390;12.256;2022-07-29T07:29:10;24.10;99.90
5978;DHT22;3015;51.390;12.256;2022-07-29T07:31:37;24.40;99.90
5978;DHT22;3015;51.390;12.256;2022-07-29T07:34:03;24.70;99.90
5978;DHT22;3015;51.390;12.256;2022-07-29T07:36:28;25.20;99.90
5978;DHT22;3015;51.390;12.256;2022-07-29T07:38:54;25.40;99.90
5978;DHT22;3015;51.390;12.256;2022-07-29T07:41:21;25.90;99.90
5978;DHT22;3015;51.390;12.256;2022-07-29T07:43:47;26.30;99.90
5978;DHT22;3015;51.390;12.256;2022-07-29T07:46:13;26.20;99.90
5978;DHT22;3015;51.390;12.256;2022-07-29T07:48:39;26.90;99.90
5978;DHT22;3015;51.390;12.256;2022-07-29T07:51:04;27.80;99.90
5978;DHT22;3015;51.390;12.256;2022-07-29T07:53:30;28.40;99.90
5978;DHT22;3015;51.390;12.256;2022-07-29T07:55:56;29.00;99.90
5978;DHT22;3015;51.390;12.256;2022-07-29T07:58:21;29.40;99.90
5978;DHT22;3015;51.390;12.256;2022-07-29T08:00:47;29.80;99.90
5978;DHT22;3015;51.390;12.256;2022-07-29T08:03:13;30.50;99.90
5978;DHT22;3015;51.390;12.256;2022-07-29T08:05:40;31.40;99.90
5978;DHT22;3015;51.390;12.256;2022-07-29T08:08:06;32.20;99.90
5978;DHT22;3015;51.390;12.256;2022-07-29T08:10:32;32.20;99.90
5978;DHT22;3015;51.390;12.256;2022-07-29T08:13:16;33.00;99.90
5978;DHT22;3015;51.390;12.256;2022-07-29T08:15:42;34.00;99.90
5978;DHT22;3015;51.390;12.256;2022-07-29T08:18:08;34.90;99.90
5978;DHT22;3015;51.390;12.256;2022-07-29T08:20:34;35.80;99.90
5978;DHT22;3015;51.390;12.256;2022-07-29T08:23:02;37.10;99.90
5978;DHT22;3015;51.390;12.256;2022-07-29T08:25:28;37.00;99.90
5978;DHT22;3015;51.390;12.256;2022-07-29T08:27:53;37.40;99.90
5978;DHT22;3015;51.390;12.256;2022-07-29T08:30:19;38.60;99.90
5978;DHT22;3015;51.390;12.256;2022-07-29T08:32:44;39.00;99.90
5978;DHT22;3015;51.390;12.256;2022-07-29T08:35:10;39.20;99.90
5978;DHT22;3015;51.390;12.256;2022-07-29T08:37:36;39.30;99.90
5978;DHT22;3015;51.390;12.256;2022-07-29T08:40:02;39.20;99.90
5978;DHT22;3015;51.390;12.256;2022-07-29T08:42:27;39.00;99.90
5978;DHT22;3015;51.390;12.256;2022-07-29T08:44:53;39.40;99.90
5978;DHT22;3015;51.390;12.256;2022-07-29T08:47:20;39.10;99.90
5978;DHT22;3015;51.390;12.256;2022-07-29T08:49:45;38.20;99.90
5978;DHT22;3015;51.390;12.256;2022-07-29T08:52:14;38.70;99.90
5978;DHT22;3015;51.390;12.256;2022-07-29T08:54:43;38.50;99.90
5978;DHT22;3015;51.390;12.256;2022-07-29T08:57:10;37.70;99.90
5978;DHT22;3015;51.390;12.256;2022-07-29T08:59:40;37.30;99.90
5978;DHT22;3015;51.390;12.256;2022-07-29T09:02:16;37.80;99.90
5978;DHT22;3015;51.390;12.256;2022-07-29T09:04:44;38.80;99.90
5978;DHT22;3015;51.390;12.256;2022-07-29T09:07:17;39.10;99.90
5978;DHT22;3015;51.390;12.256;2022-07-29T09:09:43;39.40;99.90
5978;DHT22;3015;51.390;12.256;2022-07-29T09:12:10;39.50;99.70
5978;DHT22;3015;51.390;12.256;2022-07-29T09:14:37;39.80;99.40
5978;DHT22;3015;51.390;12.256;2022-07-29T09:17:03;41.10;99.20
5978;DHT22;3015;51.390;12.256;2022-07-29T09:19:32;41.90;98.30
5978;DHT22;3015;51.390;12.256;2022-07-29T09:22:02;42.10;97.90
5978;DHT22;3015;51.390;12.256;2022-07-29T09:27:00;40.50;96.40
5978;DHT22;3015;51.390;12.256;2022-07-29T09:29:26;40.90;96.50
5978;DHT22;3015;51.390;12.256;2022-07-29T09:31:55;41.20;96.30
5978;DHT22;3015;51.390;12.256;2022-07-29T09:34:26;41.40;95.90
5978;DHT22;3015;51.390;12.256;2022-07-29T09:36:54;41.70;95.20
5978;DHT22;3015;51.390;12.256;2022-07-29T09:41:58;42.40;94.40
5978;DHT22;3015;51.390;12.256;2022-07-29T09:44:25;41.60;94.50
5978;DHT22;3015;51.390;12.256;2022-07-29T09:47:01;41.70;93.60
5978;DHT22;3015;51.390;12.256;2022-07-29T09:49:34;42.20;94.10
5978;DHT22;3015;51.390;12.256;2022-07-29T09:52:05;42.60;93.20
5978;DHT22;3015;51.390;12.256;2022-07-29T09:54:35;42.30;94.10
5978;DHT22;3015;51.390;12.256;2022-07-29T09:57:09;42.70;92.00
5978;DHT22;3015;51.390;12.256;2022-07-29T09:59:38;42.80;92.20
5978;DHT22;3015;51.390;12.256;2022-07-29T10:02:13;43.40;91.60
5978;DHT22;3015;51.390;12.256;2022-07-29T10:04:42;43.30;91.60
5978;DHT22;3015;51.390;12.256;2022-07-29T10:07:09;43.30;90.60
5978;DHT22;3015;51.390;12.256;2022-07-29T10:09:35;42.60;88.80
5978;DHT22;3015;51.390;12.256;2022-07-29T10:12:12;42.60;99.90
5978;DHT22;3015;51.390;12.256;2022-07-29T10:14:40;42.40;91.20
5978;DHT22;3015;51.390;12.256;2022-07-29T10:17:07;42.00;90.10
5978;DHT22;3015;51.390;12.256;2022-07-29T10:19:34;42.30;89.00
5978;DHT22;3015;51.390;12.256;2022-07-29T10:22:02;42.20;87.70
5978;DHT22;3015;51.390;12.256;2022-07-29T10:24:29;42.10;86.90
5978;DHT22;3015;51.390;12.256;2022-07-29T10:26:56;41.60;86.90
5978;DHT22;3015;51.390;12.256;2022-07-29T10:29:23;41.10;85.60
5978;DHT22;3015;51.390;12.256;2022-07-29T10:33:16;41.10;86.20
5978;DHT22;3015;51.390;12.256;2022-07-29T10:43:43;41.70;83.10
5978;DHT22;3015;51.390;12.256;2022-07-29T10:46:11;41.20;97.30
5978;DHT22;3015;51.390;12.256;2022-07-29T10:49:05;40.70;82.50
5978;DHT22;3015;51.390;12.256;2022-07-29T10:57:29;41.10;81.60
5978;DHT22;3015;51.390;12.256;2022-07-29T11:05:09;41.50;79.50
5978;DHT22;3015;51.390;12.256;2022-07-29T11:07:36;41.40;79.70
5978;DHT22;3015;51.390;12.256;2022-07-29T11:10:22;41.20;78.70
5978;DHT22;3015;51.390;12.256;2022-07-29T11:12:49;41.10;79.30
5978;DHT22;3015;51.390;12.256;2022-07-29T11:15:18;41.50;95.30
5978;DHT22;3015;51.390;12.256;2022-07-29T11:20:48;40.10;77.00
5978;DHT22;3015;51.390;12.256;2022-07-29T11:31:39;39.40;76.70
5978;DHT22;3015;51.390;12.256;2022-07-29T11:34:31;39.10;76.20
5978;DHT22;3015;51.390;12.256;2022-07-29T11:47:49;38.30;76.70
5978;DHT22;3015;51.390;12.256;2022-07-29T11:50:37;39.00;77.80
5978;DHT22;3015;51.390;12.256;2022-07-29T11:53:13;39.70;75.20
5978;DHT22;3015;51.390;12.256;2022-07-29T11:55:40;39.50;74.40
5978;DHT22;3015;51.390;12.256;2022-07-29T11:58:06;40.40;75.00
5978;DHT22;3015;51.390;12.256;2022-07-29T12:00:38;40.80;73.00
5978;DHT22;3015;51.390;12.256;2022-07-29T12:03:06;40.90;72.10
5978;DHT22;3015;51.390;12.256;2022-07-29T12:08:10;41.20;70.60
5978;DHT22;3015;51.390;12.256;2022-07-29T12:10:37;41.80;71.50
5978;DHT22;3015;51.390;12.256;2022-07-29T12:13:03;41.80;70.50
5978;DHT22;3015;51.390;12.256;2022-07-29T12:15:29;42.30;68.80
5978;DHT22;3015;51.390;12.256;2022-07-29T12:17:55;42.00;70.30
5978;DHT22;3015;51.390;12.256;2022-07-29T12:20:26;41.50;69.60
5978;DHT22;3015;51.390;12.256;2022-07-29T12:22:52;41.50;70.80
5978;DHT22;3015;51.390;12.256;2022-07-29T12:25:19;42.00;69.70
5978;DHT22;3015;51.390;12.256;2022-07-29T12:27:44;42.40;68.70
5978;DHT22;3015;51.390;12.256;2022-07-29T12:30:13;42.10;68.00
5978;DHT22;3015;51.390;12.256;2022-07-29T12:32:44;41.60;66.90
5978;DHT22;3015;51.390;12.256;2022-07-29T12:37:39;39.40;67.40
5978;DHT22;3015;51.390;12.256;2022-07-29T12:40:07;39.20;70.00
5978;DHT22;3015;51.390;12.256;2022-07-29T12:42:33;39.10;70.50
5978;DHT22;3015;51.390;12.256;2022-07-29T12:45:00;39.70;70.40
5978;DHT22;3015;51.390;12.256;2022-07-29T12:47:27;39.60;68.60
5978;DHT22;3015;51.390;12.256;2022-07-29T12:50:09;39.40;69.30
5978;DHT22;3015;51.390;12.256;2022-07-29T12:52:35;38.80;68.90
5978;DHT22;3015;51.390;12.256;2022-07-29T12:55:01;37.70;91.20
5978;DHT22;3015;51.390;12.256;2022-07-29T12:57:28;37.10;70.40
5978;DHT22;3015;51.390;12.256;2022-07-29T13:00:05;37.50;73.20
5978;DHT22;3015;51.390;12.256;2022-07-29T13:02:33;38.40;72.00
5978;DHT22;3015;51.390;12.256;2022-07-29T13:05:01;38.90;70.60
5978;DHT22;3015;51.390;12.256;2022-07-29T13:07:28;39.10;72.00
5978;DHT22;3015;51.390;12.256;2022-07-29T13:10:14;38.60;71.50
5978;DHT22;3015;51.390;12.256;2022-07-29T13:13:12;37.40;69.70
5978;DHT22;3015;51.390;12.256;2022-07-29T13:16:05;37.00;72.70
5978;DHT22;3015;51.390;12.256;2022-07-29T13:18:34;36.40;70.60
5978;DHT22;3015;51.390;12.256;2022-07-29T13:21:13;36.10;72.40
5978;DHT22;3015;51.390;12.256;2022-07-29T13:23:39;35.90;73.70
5978;DHT22;3015;51.390;12.256;2022-07-29T13:26:09;35.70;72.60
5978;DHT22;3015;51.390;12.256;2022-07-29T13:28:35;35.50;72.70
5978;DHT22;3015;51.390;12.256;2022-07-29T13:31:01;35.30;92.70
5978;DHT22;3015;51.390;12.256;2022-07-29T13:33:27;35.20;74.90
5978;DHT22;3015;51.390;12.256;2022-07-29T13:35:52;35.20;73.90
5978;DHT22;3015;51.390;12.256;2022-07-29T13:38:18;35.10;74.80
5978;DHT22;3015;51.390;12.256;2022-07-29T13:40:44;35.30;74.80
5978;DHT22;3015;51.390;12.256;2022-07-29T13:43:11;35.20;75.40
5978;DHT22;3015;51.390;12.256;2022-07-29T13:45:37;34.70;74.80
5978;DHT22;3015;51.390;12.256;2022-07-29T13:48:03;34.60;75.60
5978;DHT22;3015;51.390;12.256;2022-07-29T13:50:29;34.30;75.70
5978;DHT22;3015;51.390;12.256;2022-07-29T13:52:54;34.10;75.80
5978;DHT22;3015;51.390;12.256;2022-07-29T13:55:20;33.80;75.50
5978;DHT22;3015;51.390;12.256;2022-07-29T13:57:46;33.50;77.20
5978;DHT22;3015;51.390;12.256;2022-07-29T14:00:13;33.10;76.90
5978;DHT22;3015;51.390;12.256;2022-07-29T14:02:39;32.90;76.60
5978;DHT22;3015;51.390;12.256;2022-07-29T14:05:08;32.70;78.10
5978;DHT22;3015;51.390;12.256;2022-07-29T14:07:36;32.50;77.80
5978;DHT22;3015;51.390;12.256;2022-07-29T14:10:02;32.40;78.60
5978;DHT22;3015;51.390;12.256;2022-07-29T14:12:28;32.30;77.90
5978;DHT22;3015;51.390;12.256;2022-07-29T14:14:54;32.10;79.30
5978;DHT22;3015;51.390;12.256;2022-07-29T14:17:19;32.10;79.50
5978;DHT22;3015;51.390;12.256;2022-07-29T14:19:45;32.00;79.40
5978;DHT22;3015;51.390;12.256;2022-07-29T14:22:11;31.90;80.30
5978;DHT22;3015;51.390;12.256;2022-07-29T14:24:36;31.90;80.30
5978;DHT22;3015;51.390;12.256;2022-07-29T14:27:03;32.00;79.90
5978;DHT22;3015;51.390;12.256;2022-07-29T14:29:29;31.90;80.40
5978;DHT22;3015;51.390;12.256;2022-07-29T14:31:54;31.90;82.20
5978;DHT22;3015;51.390;12.256;2022-07-29T14:34:20;32.00;80.60
5978;DHT22;3015;51.390;12.256;2022-07-29T14:36:46;32.00;81.20
5978;DHT22;3015;51.390;12.256;2022-07-29T14:39:11;32.00;80.90
5978;DHT22;3015;51.390;12.256;2022-07-29T14:41:37;32.10;81.50
5978;DHT22;3015;51.390;12.256;2022-07-29T14:44:03;32.20;83.60
5978;DHT22;3015;51.390;12.256;2022-07-29T14:46:29;32.10;82.70
5978;DHT22;3015;51.390;12.256;2022-07-29T14:48:55;32.10;82.60
5978;DHT22;3015;51.390;12.256;2022-07-29T14:51:20;32.10;82.60
5978;DHT22;3015;51.390;12.256;2022-07-29T14:53:46;32.00;83.00
5978;DHT22;3015;51.390;12.256;2022-07-29T14:56:12;32.10;84.70
5978;DHT22;3015;51.390;12.256;2022-07-29T14:58:38;32.10;83.00
5978;DHT22;3015;51.390;12.256;2022-07-29T15:01:03;32.00;82.70
5978;DHT22;3015;51.390;12.256;2022-07-29T15:03:29;32.00;83.20
5978;DHT22;3015;51.390;12.256;2022-07-29T15:05:55;32.00;83.70
5978;DHT22;3015;51.390;12.256;2022-07-29T15:08:21;31.90;83.30
5978;DHT22;3015;51.390;12.256;2022-07-29T15:10:47;31.80;83.00
5978;DHT22;3015;51.390;12.256;2022-07-29T15:13:13;31.80;83.50
5978;DHT22;3015;51.390;12.256;2022-07-29T15:15:38;31.90;85.30
5978;DHT22;3015;51.390;12.256;2022-07-29T15:18:05;31.90;86.20
5978;DHT22;3015;51.390;12.256;2022-07-29T15:20:31;32.00;85.90
5978;DHT22;3015;51.390;12.256;2022-07-29T15:22:56;32.10;85.40
5978;DHT22;3015;51.390;12.256;2022-07-29T15:25:24;32.10;84.90
5978;DHT22;3015;51.390;12.256;2022-07-29T15:27:49;32.10;84.50
5978;DHT22;3015;51.390;12.256;2022-07-29T15:30:15;31.90;84.90
5978;DHT22;3015;51.390;12.256;2022-07-29T15:32:43;31.90;85.20
5978;DHT22;3015;51.390;12.256;2022-07-29T15:35:09;31.90;85.30
5978;DHT22;3015;51.390;12.256;2022-07-29T15:37:39;31.90;85.00
5978;DHT22;3015;51.390;12.256;2022-07-29T15:40:06;32.10;85.30
5978;DHT22;3015;51.390;12.256;2022-07-29T15:42:32;32.10;86.10
5978;DHT22;3015;51.390;12.256;2022-07-29T15:45:00;32.20;86.20
5978;DHT22;3015;51.390;12.256;2022-07-29T15:47:28;32.40;86.80
5978;DHT22;3015;51.390;12.256;2022-07-29T15:49:54;32.70;86.30
5978;DHT22;3015;51.390;12.256;2022-07-29T15:52:20;32.80;86.30
5978;DHT22;3015;51.390;12.256;2022-07-29T15:54:45;32.90;86.10
5978;DHT22;3015;51.390;12.256;2022-07-29T15:57:12;33.00;85.10
5978;DHT22;3015;51.390;12.256;2022-07-29T15:59:38;33.00;85.00
5978;DHT22;3015;51.390;12.256;2022-07-29T16:02:04;32.90;84.80
5978;DHT22;3015;51.390;12.256;2022-07-29T16:04:29;32.80;86.20
5978;DHT22;3015;51.390;12.256;2022-07-29T16:06:56;32.80;85.40
5978;DHT22;3015;51.390;12.256;2022-07-29T16:09:22;32.70;84.50
5978;DHT22;3015;51.390;12.256;2022-07-29T16:11:48;32.20;85.60
5978;DHT22;3015;51.390;12.256;2022-07-29T16:14:16;30.40;88.80
5978;DHT22;3015;51.390;12.256;2022-07-29T16:16:42;29.20;89.90
5978;DHT22;3015;51.390;12.256;2022-07-29T16:19:08;28.50;91.60
5978;DHT22;3015;51.390;12.256;2022-07-29T16:21:35;28.10;93.30
5978;DHT22;3015;51.390;12.256;2022-07-29T16:24:01;28.10;93.90
5978;DHT22;3015;51.390;12.256;2022-07-29T16:26:27;28.20;94.60
5978;DHT22;3015;51.390;12.256;2022-07-29T16:28:53;28.50;94.90
5978;DHT22;3015;51.390;12.256;2022-07-29T16:31:18;28.70;96.00
5978;DHT22;3015;51.390;12.256;2022-07-29T16:33:51;28.40;95.80
5978;DHT22;3015;51.390;12.256;2022-07-29T16:36:17;28.30;96.10
5978;DHT22;3015;51.390;12.256;2022-07-29T16:38:43;28.20;96.90
5978;DHT22;3015;51.390;12.256;2022-07-29T16:41:08;28.30;97.30
5978;DHT22;3015;51.390;12.256;2022-07-29T16:43:34;28.30;97.70
5978;DHT22;3015;51.390;12.256;2022-07-29T16:46:00;28.20;97.80
5978;DHT22;3015;51.390;12.256;2022-07-29T16:48:25;27.80;98.20
5978;DHT22;3015;51.390;12.256;2022-07-29T16:50:51;27.50;99.60